Observation data for Sundown on 05/16/2018      Previous  Date  Next       Current Mesonet Observations  Soil Data  Daily Summary Page  Observations in Plain Language
KSDS 160505Z 09014G20KT 20/13 A3002 RMK A01 T02000127  RH  065%=      5-min Rain = 0
KSDS 160510Z 09013G19KT 20/13 A3002 RMK A01 T02010125  RH  064%=      5-min Rain = 0
KSDS 160515Z 09010G15KT 20/12 A3002 RMK A01 T02000123  RH  064%=      5-min Rain = 0
KSDS 160520Z 08011KT 20/12 A3003 RMK A01 T01990120  RH  063%=      5-min Rain = 0
KSDS 160525Z 09010G15KT 20/12 A3003 RMK A01 T02000118  RH  061%=      5-min Rain = 0
KSDS 160530Z 09008KT 20/12 A3003 RMK A01 T01980116  RH  061%=      5-min Rain = 0
KSDS 160535Z 09008KT 20/12 A3003 RMK A01 T01960116  RH  062%=      5-min Rain = 0
KSDS 160540Z 09009G14KT 20/12 A3003 RMK A01 T01950115  RH  062%=      5-min Rain = 0
KSDS 160545Z 09010KT 20/11 A3003 RMK A01 T01950113  RH  061%=      5-min Rain = 0
KSDS 160550Z 09010KT 19/11 A3003 RMK A01 T01940112  RH  061%=      5-min Rain = 0
KSDS 160555Z 08010KT 19/11 A3003 RMK A01 T01930111  RH  061%=      5-min Rain = 0
KSDS 160600Z 09010KT 19/11 A3003 RMK A01 T01930110  RH  061%=      5-min Rain = 0
KSDS 160605Z 10009KT 19/11 A3003 RMK A01 T01910110  RH  061%=      5-min Rain = 0
KSDS 160610Z 10009KT 19/11 A3002 RMK A01 T01890108  RH  062%=      5-min Rain = 0
KSDS 160615Z 10010KT 19/11 A3002 RMK A01 T01880107  RH  061%=      5-min Rain = 0
KSDS 160620Z 11010KT 19/11 A3002 RMK A01 T01880107  RH  061%=      5-min Rain = 0
KSDS 160625Z 11009KT 19/11 A3002 RMK A01 T01850107  RH  063%=      5-min Rain = 0
KSDS 160630Z 11010KT 18/11 A3002 RMK A01 T01840108  RH  063%=      5-min Rain = 0
KSDS 160635Z 11010KT 18/11 A3003 RMK A01 T01830109  RH  064%=      5-min Rain = 0
KSDS 160640Z 11010KT 18/11 A3003 RMK A01 T01820109  RH  065%=      5-min Rain = 0
KSDS 160645Z 10009KT 18/11 A3003 RMK A01 T01810108  RH  065%=      5-min Rain = 0
KSDS 160650Z 10008KT 18/11 A3002 RMK A01 T01790108  RH  065%=      5-min Rain = 0
KSDS 160655Z 10009KT 18/11 A3002 RMK A01 T01760108  RH  066%=      5-min Rain = 0
KSDS 160700Z 10009KT 17/11 A3002 RMK A01 T01740108  RH  067%=      5-min Rain = 0
KSDS 160705Z 11010KT 17/11 A3002 RMK A01 T01730108  RH  068%=      5-min Rain = 0
KSDS 160710Z 12011KT 18/11 A3002 RMK A01 T01750108  RH  067%=      5-min Rain = 0
KSDS 160715Z 12011KT 18/11 A3001 RMK A01 T01770109  RH  067%=      5-min Rain = 0
KSDS 160720Z 12013KT 18/11 A3001 RMK A01 T01770111  RH  067%=      5-min Rain = 0
KSDS 160725Z 12011KT 18/11 A3001 RMK A01 T01770111  RH  068%=      5-min Rain = 0
KSDS 160730Z 12011G16KT 18/11 A3001 RMK A01 T01770112  RH  068%=      5-min Rain = 0
KSDS 160735Z 11010KT 18/11 A3001 RMK A01 T01760112  RH  068%=      5-min Rain = 0
KSDS 160740Z 11008KT 17/11 A3001 RMK A01 T01740112  RH  069%=      5-min Rain = 0
KSDS 160745Z 12007KT 17/11 A30 RMK A01 T01730113  RH  070%=      5-min Rain = 0
KSDS 160750Z 14008KT 17/11 A30 RMK A01 T01710113  RH  071%=      5-min Rain = 0
KSDS 160755Z 14008KT 17/11 A30 RMK A01 T01710113  RH  071%=      5-min Rain = 0
KSDS 160800Z 14007KT 17/11 A30 RMK A01 T01700113  RH  071%=      5-min Rain = 0
KSDS 160805Z 14008KT 17/11 A2999 RMK A01 T01690112  RH  072%=      5-min Rain = 0
KSDS 160810Z 15010KT 17/11 A2999 RMK A01 T01680112  RH  072%=      5-min Rain = 0
KSDS 160815Z 14009KT 17/11 A2999 RMK A01 T01700113  RH  072%=      5-min Rain = 0
KSDS 160820Z 15009KT 17/11 A2998 RMK A01 T01700113  RH  072%=      5-min Rain = 0
KSDS 160825Z 15008KT 17/11 A2998 RMK A01 T01700113  RH  072%=      5-min Rain = 0
KSDS 160830Z 16008KT 17/11 A2998 RMK A01 T01680113  RH  073%=      5-min Rain = 0
KSDS 160835Z 16009KT 17/11 A2998 RMK A01 T01660113  RH  074%=      5-min Rain = 0
KSDS 160840Z 16010KT 17/11 A2998 RMK A01 T01650113  RH  074%=      5-min Rain = 0
KSDS 160845Z 16010KT 17/11 A2998 RMK A01 T01670113  RH  073%=      5-min Rain = 0
KSDS 160850Z 16011KT 17/11 A2997 RMK A01 T01670113  RH  073%=      5-min Rain = 0
KSDS 160855Z 17011KT 17/11 A2998 RMK A01 T01670113  RH  073%=      5-min Rain = 0
KSDS 160900Z 16010KT 17/11 A2997 RMK A01 T01690113  RH  072%=      5-min Rain = 0
KSDS 160905Z 16011KT 17/11 A2997 RMK A01 T01720113  RH  071%=      5-min Rain = 0
KSDS 160910Z 16012KT 18/11 A2997 RMK A01 T01750114  RH  070%=      5-min Rain = 0
KSDS 160915Z 16012G18KT 18/12 A2998 RMK A01 T01780115  RH  069%=      5-min Rain = 0
KSDS 160920Z 16013KT 18/12 A2998 RMK A01 T01810117  RH  068%=      5-min Rain = 0
KSDS 160925Z 16013KT 18/12 A2997 RMK A01 T01820118  RH  069%=      5-min Rain = 0
KSDS 160930Z 15012G17KT 18/12 A2998 RMK A01 T01840119  RH  068%=      5-min Rain = 0
KSDS 160935Z 15012G17KT 18/12 A2998 RMK A01 T01840119  RH  068%=      5-min Rain = 0
KSDS 160940Z 14011KT 18/12 A2998 RMK A01 T01840119  RH  068%=      5-min Rain = 0
KSDS 160945Z 13009KT 18/12 A2999 RMK A01 T01830119  RH  068%=      5-min Rain = 0
KSDS 160950Z 07007KT 18/12 A30 RMK A01 T01810118  RH  069%=      5-min Rain = 0
KSDS 160955Z 04008KT 17/12 A30 RMK A01 T01730115  RH  071%=      5-min Rain = 0
KSDS 161000Z 05008KT 17/12 A3001 RMK A01 T01650116  RH  076%=      5-min Rain = 0
KSDS 161005Z 08006KT 16/12 A3001 RMK A01 T01630117  RH  077%=      5-min Rain = 0
KSDS 161010Z 11006KT 17/12 A3001 RMK A01 T01660117  RH  076%=      5-min Rain = 0
KSDS 161015Z 07006KT 17/12 A3002 RMK A01 T01650116  RH  076%=      5-min Rain = 0
KSDS 161020Z 04006KT 16/12 A3002 RMK A01 T01610116  RH  077%=      5-min Rain = 0
KSDS 161025Z 05006KT 16/12 A3002 RMK A01 T01630119  RH  078%=      5-min Rain = 0
KSDS 161030Z 10007KT 17/12 A3002 RMK A01 T01650121  RH  078%=      5-min Rain = 0
KSDS 161035Z 12007KT 17/12 A3001 RMK A01 T01650121  RH  078%=      5-min Rain = 0
KSDS 161040Z 10006KT 17/12 A3001 RMK A01 T01650121  RH  078%=      5-min Rain = 0
KSDS 161045Z 05006KT 16/12 A3002 RMK A01 T01640122  RH  079%=      5-min Rain = 0
KSDS 161050Z 07007KT 17/13 A3002 RMK A01 T01670125  RH  079%=      5-min Rain = 0
KSDS 161055Z 11009KT 17/13 A3001 RMK A01 T01700126  RH  078%=      5-min Rain = 0
KSDS 161100Z 14011KT 17/13 A3001 RMK A01 T01700125  RH  078%=      5-min Rain = 0
KSDS 161105Z 12008KT 17/13 A3001 RMK A01 T01690125  RH  079%=      5-min Rain = 0
KSDS 161110Z 08007KT 17/13 A3002 RMK A01 T01670126  RH  079%=      5-min Rain = 0
KSDS 161115Z 08006KT 17/13 A3002 RMK A01 T01680127  RH  079%=      5-min Rain = 0
KSDS 161120Z 11006KT 17/13 A3001 RMK A01 T01700127  RH  079%=      5-min Rain = 0
KSDS 161125Z 15008KT 17/13 A3001 RMK A01 T01690126  RH  078%=      5-min Rain = 0
KSDS 161130Z 14008KT 17/12 A3001 RMK A01 T01680124  RH  078%=      5-min Rain = 0
KSDS 161135Z 11007KT 17/12 A3002 RMK A01 T01660124  RH  079%=      5-min Rain = 0
KSDS 161140Z 12006KT 17/12 A3002 RMK A01 T01680124  RH  078%=      5-min Rain = 0
KSDS 161145Z 14006KT 17/12 A3002 RMK A01 T01700123  RH  077%=      5-min Rain = 0
KSDS 161150Z 13005KT 17/12 A3002 RMK A01 T01710122  RH  076%=      5-min Rain = 0
KSDS 161155Z 13004KT 17/12 A3003 RMK A01 T01720122  RH  075%=      5-min Rain = 0
KSDS 161200Z 14005KT 17/12 A3003 RMK A01 T01730121  RH  074%=      5-min Rain = 0
KSDS 161205Z 13005KT 17/12 A3003 RMK A01 T01740120  RH  074%=      5-min Rain = 0
KSDS 161210Z 11004KT 17/12 A3004 RMK A01 T01740120  RH  073%=      5-min Rain = 0
KSDS 161215Z 12005KT 18/12 A3004 RMK A01 T01750120  RH  073%=      5-min Rain = 0
KSDS 161220Z 11004KT 17/12 A3004 RMK A01 T01740119  RH  073%=      5-min Rain = 0
KSDS 161225Z 11004KT 18/12 A3005 RMK A01 T01750119  RH  073%=      5-min Rain = 0
KSDS 161230Z 14004KT 18/12 A3005 RMK A01 T01750119  RH  072%=      5-min Rain = 0
KSDS 161235Z 13005KT 18/12 A3005 RMK A01 T01750119  RH  072%=      5-min Rain = 0
KSDS 161240Z 14006KT 18/12 A3005 RMK A01 T01750119  RH  072%=      5-min Rain = 0
KSDS 161245Z 13004KT 18/12 A3005 RMK A01 T01760119  RH  072%=      5-min Rain = 0
KSDS 161250Z 13004KT 18/12 A3005 RMK A01 T01770118  RH  071%=      5-min Rain = 0
KSDS 161255Z 12003KT 18/12 A3006 RMK A01 T01780118  RH  071%=      5-min Rain = 0
KSDS 161300Z 13005KT 18/12 A3006 RMK A01 T01790118  RH  070%=      5-min Rain = 0
KSDS 161305Z 11005KT 18/12 A3006 RMK A01 T01790118  RH  070%=      5-min Rain = 0
KSDS 161310Z 10004KT 18/12 A3007 RMK A01 T01800118  RH  070%=      5-min Rain = 0
KSDS 161315Z 11005KT 18/12 A3007 RMK A01 T01800119  RH  070%=      5-min Rain = 0
KSDS 161320Z 08005KT 18/12 A3008 RMK A01 T01800119  RH  070%=      5-min Rain = 0
KSDS 161325Z 07005KT 18/12 A3008 RMK A01 T01810119  RH  070%=      5-min Rain = 0
KSDS 161330Z 08005KT 18/12 A3008 RMK A01 T01810119  RH  069%=      5-min Rain = 0
KSDS 161335Z 07006KT 18/12 A3009 RMK A01 T01830119  RH  069%=      5-min Rain = 0
KSDS 161340Z 07007KT 18/12 A3009 RMK A01 T01830119  RH  069%=      5-min Rain = 0
KSDS 161345Z 08007KT 18/12 A301 RMK A01 T01830119  RH  069%=      5-min Rain = 0
KSDS 161350Z 08008KT 18/12 A301 RMK A01 T01830120  RH  069%=      5-min Rain = 0
KSDS 161355Z 09007KT 18/12 A3011 RMK A01 T01840120  RH  069%=      5-min Rain = 0
KSDS 161400Z 09007KT 19/12 A3011 RMK A01 T01850121  RH  069%=      5-min Rain = 0
KSDS 161405Z 09007KT 19/12 A3011 RMK A01 T01850121  RH  069%=      5-min Rain = 0
KSDS 161410Z 09006KT 19/12 A3011 RMK A01 T01850122  RH  069%=      5-min Rain = 0
KSDS 161415Z 09006KT 19/12 A3012 RMK A01 T01870123  RH  069%=      5-min Rain = 0
KSDS 161420Z 08010KT 19/13 A3012 RMK A01 T01870125  RH  070%=      5-min Rain = 0
KSDS 161425Z 07010KT 18/13 A3012 RMK A01 T01840127  RH  073%=      5-min Rain = 0
KSDS 161430Z 08008KT 18/13 A3012 RMK A01 T01840128  RH  073%=      5-min Rain = 0
KSDS 161435Z 09010KT 19/13 A3012 RMK A01 T01850129  RH  073%=      5-min Rain = 0
KSDS 161440Z 09011KT 19/13 A3012 RMK A01 T01870129  RH  072%=      5-min Rain = 0
KSDS 161445Z 09009KT 19/13 A3012 RMK A01 T01900129  RH  071%=      5-min Rain = 0
KSDS 161450Z 10010KT 19/13 A3012 RMK A01 T01910129  RH  070%=      5-min Rain = 0
KSDS 161455Z 11009G14KT 20/13 A3012 RMK A01 T01960130  RH  068%=      5-min Rain = 0
KSDS 161500Z 12011KT 20/13 A3012 RMK A01 T01990131  RH  067%=      5-min Rain = 0
KSDS 161505Z 11011KT 21/13 A3011 RMK A01 T02090132  RH  064%=      5-min Rain = 0
KSDS 161510Z 11013G18KT 21/13 A3011 RMK A01 T02120131  RH  062%=      5-min Rain = 0
KSDS 161515Z 12013G19KT 21/13 A3011 RMK A01 T02130131  RH  062%=      5-min Rain = 0
KSDS 161520Z 12013G18KT 21/13 A3011 RMK A01 T02110130  RH  063%=      5-min Rain = 0
KSDS 161525Z 13014KT 22/13 A3011 RMK A01 T02150131  RH  061%=      5-min Rain = 0
KSDS 161530Z 12013KT 22/13 A3011 RMK A01 T02160130  RH  060%=      5-min Rain = 0
KSDS 161535Z 13015G20KT 22/13 A3011 RMK A01 T02180131  RH  060%=      5-min Rain = 0
KSDS 161540Z 14013G18KT 22/13 A301 RMK A01 T02220131  RH  059%=      5-min Rain = 0
KSDS 161545Z 13015G20KT 23/13 A3011 RMK A01 T02250131  RH  058%=      5-min Rain = 0
KSDS 161550Z 14014G19KT 23/13 A3011 RMK A01 T02270132  RH  057%=      5-min Rain = 0
KSDS 161555Z 14015KT 23/13 A301 RMK A01 T02310133  RH  056%=      5-min Rain = 0
KSDS 161600Z 15016G21KT 23/13 A301 RMK A01 T02330133  RH  056%=      5-min Rain = 0
KSDS 161605Z 15016G21KT 24/13 A301 RMK A01 T02370134  RH  055%=      5-min Rain = 0
KSDS 161610Z 15014KT 24/13 A301 RMK A01 T02410134  RH  053%=      5-min Rain = 0
KSDS 161615Z 16014G21KT 24/13 A301 RMK A01 T02400133  RH  053%=      5-min Rain = 0
KSDS 161620Z 14014G22KT 25/13 A3009 RMK A01 T02460130  RH  051%=      5-min Rain = 0
KSDS 161625Z 15015G22KT 25/13 A3009 RMK A01 T02510130  RH  049%=      5-min Rain = 0
KSDS 161630Z 15017G22KT 25/13 A3009 RMK A01 T02480130  RH  050%=      5-min Rain = 0
KSDS 161635Z 16014G19KT 25/13 A3009 RMK A01 T02520130  RH  049%=      5-min Rain = 0
KSDS 161640Z 17015G21KT 25/13 A3009 RMK A01 T02490128  RH  049%=      5-min Rain = 0
KSDS 161645Z 15015G21KT 25/13 A3009 RMK A01 T02510128  RH  048%=      5-min Rain = 0
KSDS 161650Z 16014G23KT 26/13 A3009 RMK A01 T02570128  RH  046%=      5-min Rain = 0
KSDS 161655Z 16014G19KT 26/13 A3009 RMK A01 T02570126  RH  046%=      5-min Rain = 0
KSDS 161700Z 15014G21KT 26/12 A3009 RMK A01 T02630123  RH  044%=      5-min Rain = 0
KSDS 161705Z 16015G21KT 26/12 A3008 RMK A01 T02630119  RH  042%=      5-min Rain = 0
KSDS 161710Z 15013G20KT 27/12 A3008 RMK A01 T02650116  RH  041%=      5-min Rain = 0
KSDS 161715Z 15014G21KT 27/11 A3008 RMK A01 T02680114  RH  040%=      5-min Rain = 0
KSDS 161720Z 15014KT 27/12 A3007 RMK A01 T02690115  RH  040%=      5-min Rain = 0
KSDS 161725Z 15017G22KT 27/11 A3007 RMK A01 T02710114  RH  039%=      5-min Rain = 0
KSDS 161730Z 15012KT 27/11 A3007 RMK A01 T02690113  RH  039%=      5-min Rain = 0
KSDS 161735Z 17014G24KT 28/11 A3007 RMK A01 T02750111  RH  037%=      5-min Rain = 0
KSDS 161740Z 15011G16KT 27/11 A3007 RMK A01 T02710109  RH  038%=      5-min Rain = 0
KSDS 161745Z 15014G22KT 27/11 A3007 RMK A01 T02740110  RH  037%=      5-min Rain = 0
KSDS 161750Z 16014KT 27/11 A3007 RMK A01 T02720108  RH  037%=      5-min Rain = 0
KSDS 161755Z 17014G22KT 28/11 A3006 RMK A01 T02760108  RH  036%=      5-min Rain = 0
KSDS 161800Z 15014G19KT 28/11 A3006 RMK A01 T02780109  RH  036%=      5-min Rain = 0
KSDS 161805Z 16012KT 28/11 A3006 RMK A01 T02820105  RH  034%=      5-min Rain = 0
KSDS 161810Z 15013G19KT 28/10 A3006 RMK A01 T02840102  RH  033%=      5-min Rain = 0
KSDS 161815Z 15012G17KT 28/10 A3005 RMK A01 T02820102  RH  033%=      5-min Rain = 0
KSDS 161820Z 18015G21KT 29/10 A3005 RMK A01 T02850099  RH  032%=      5-min Rain = 0
KSDS 161825Z 17010G17KT 29/10 A3005 RMK A01 T02850096  RH  032%=      5-min Rain = 0
KSDS 161830Z 18012KT 29/09 A3005 RMK A01 T02880093  RH  031%=      5-min Rain = 0
KSDS 161835Z 18010G15KT 29/09 A3005 RMK A01 T02860091  RH  030%=      5-min Rain = 0
KSDS 161840Z 18010G15KT 29/09 A3005 RMK A01 T02890094  RH  031%=      5-min Rain = 0
KSDS 161845Z 14013KT 29/09 A3005 RMK A01 T02930092  RH  029%=      5-min Rain = 0
KSDS 161850Z 13011G16KT 29/09 A3005 RMK A01 T02910091  RH  030%=      5-min Rain = 0
KSDS 161855Z 15010G17KT 30/09 A3005 RMK A01 T02950089  RH  028%=      5-min Rain = 0
KSDS 161900Z 15007G14KT 30/08 A3005 RMK A01 T02950084  RH  027%=      5-min Rain = 0
KSDS 161905Z 18007G13KT 30/09 A3004 RMK A01 T02960086  RH  028%=      5-min Rain = 0
KSDS 161910Z 18004G10KT 30/08 A3004 RMK A01 T02960084  RH  027%=      5-min Rain = 0
KSDS 161915Z 15009G14KT 31/08 A3004 RMK A01 T03050084  RH  026%=      5-min Rain = 0
KSDS 161920Z 16010G15KT 30/08 A3004 RMK A01 T02990083  RH  027%=      5-min Rain = 0
KSDS 161925Z 16009G14KT 30/08 A3004 RMK A01 T03010084  RH  026%=      5-min Rain = 0
KSDS 161930Z 17008G13KT 30/08 A3004 RMK A01 T03020082  RH  026%=      5-min Rain = 0
KSDS 161935Z 15007G16KT 30/08 A3003 RMK A01 T03000079  RH  026%=      5-min Rain = 0
KSDS 161940Z 15011G17KT 31/08 A3003 RMK A01 T03050079  RH  025%=      5-min Rain = 0
KSDS 161945Z 13010KT 31/08 A3003 RMK A01 T03090077  RH  024%=      5-min Rain = 0
KSDS 161950Z 13009G15KT 31/08 A3003 RMK A01 T03060079  RH  025%=      5-min Rain = 0
KSDS 161955Z 19011G18KT 31/08 A3002 RMK A01 T03100075  RH  024%=      5-min Rain = 0
KSDS 162000Z 16006G12KT 30/08 A3002 RMK A01 T03040075  RH  024%=      5-min Rain = 0
KSDS 162005Z 14006G14KT 31/08 A3002 RMK A01 T03060075  RH  024%=      5-min Rain = 0
KSDS 162010Z 20010G15KT 32/08 A3002 RMK A01 T03170076  RH  023%=      5-min Rain = 0
KSDS 162015Z 21008KT 31/07 A3001 RMK A01 T03130074  RH  023%=      5-min Rain = 0
KSDS 162020Z 18007G12KT 32/08 A3001 RMK A01 T03190075  RH  022%=      5-min Rain = 0
KSDS 162025Z 18009G16KT 32/08 A3001 RMK A01 T03200077  RH  023%=      5-min Rain = 0
KSDS 162030Z 15006G13KT 31/08 A3001 RMK A01 T03130075  RH  023%=      5-min Rain = 0
KSDS 162035Z 15007G15KT 32/08 A30 RMK A01 T03170075  RH  023%=      5-min Rain = 0
KSDS 162040Z 20011KT 32/07 A30 RMK A01 T03210074  RH  022%=      5-min Rain = 0
KSDS 162045Z 18007G13KT 32/07 A30 RMK A01 T03220074  RH  022%=      5-min Rain = 0
KSDS 162050Z 17006G13KT 32/08 A30 RMK A01 T03200075  RH  022%=      5-min Rain = 0
KSDS 162055Z 14009G18KT 33/08 A2999 RMK A01 T03250077  RH  022%=      5-min Rain = 0
KSDS 162100Z 14008G15KT 32/08 A2999 RMK A01 T03240076  RH  022%=      5-min Rain = 0
KSDS 162105Z 16008G13KT 33/07 A2999 RMK A01 T03260074  RH  021%=      5-min Rain = 0
KSDS 162110Z 17010G16KT 33/07 A2999 RMK A01 T03280069  RH  021%=      5-min Rain = 0
KSDS 162115Z 17007G12KT 32/07 A2998 RMK A01 T03220069  RH  021%=      5-min Rain = 0
KSDS 162120Z 15006KT 33/07 A2998 RMK A01 T03260066  RH  020%=      5-min Rain = 0
KSDS 162125Z 16006KT 33/07 A2998 RMK A01 T03320068  RH  020%=      5-min Rain = 0
KSDS 162130Z 19009KT 33/07 A2997 RMK A01 T03280068  RH  020%=      5-min Rain = 0
KSDS 162135Z 15008G14KT 33/07 A2997 RMK A01 T03290066  RH  020%=      5-min Rain = 0
KSDS 162140Z 19009G14KT 33/06 A2997 RMK A01 T03330063  RH  019%=      5-min Rain = 0
KSDS 162145Z 15010G15KT 34/07 A2997 RMK A01 T03370065  RH  019%=      5-min Rain = 0
KSDS 162150Z 13008KT 33/06 A2996 RMK A01 T03310063  RH  019%=      5-min Rain = 0
KSDS 162155Z 15009G19KT 33/06 A2996 RMK A01 T03340055  RH  018%=      5-min Rain = 0
KSDS 162200Z 19008KT 34/05 A2996 RMK A01 T03350050  RH  017%=      5-min Rain = 0
KSDS 162205Z 19010KT 33/05 A2996 RMK A01 T03330050  RH  017%=      5-min Rain = 0
KSDS 162210Z 21007G13KT 33/05 A2995 RMK A01 T03340051  RH  017%=      5-min Rain = 0
KSDS 162215Z 19007G13KT 34/05 A2995 RMK A01 T03350052  RH  017%=      5-min Rain = 0
KSDS 162220Z 14005KT 33/05 A2995 RMK A01 T03300052  RH  018%=      5-min Rain = 0
KSDS 162225Z 19004G9KT 32/05 A2995 RMK A01 T03200049  RH  019%=      5-min Rain = 0
KSDS 162230Z 17005KT 32/05 A2994 RMK A01 T03240050  RH  018%=      5-min Rain = 0
KSDS 162235Z 17004KT 33/05 A2994 RMK A01 T03340050  RH  017%=      5-min Rain = 0
KSDS 162240Z 11006G11KT 34/05 A2994 RMK A01 T03380048  RH  017%=      5-min Rain = 0
KSDS 162245Z 09003KT 34/05 A2994 RMK A01 T03360049  RH  017%=      5-min Rain = 0
KSDS 162250Z 20009G21KT 33/04 A2994 RMK A01 T03320039  RH  016%=      5-min Rain = 0
KSDS 162255Z 19005KT 33/04 A2994 RMK A01 T03340035  RH  016%=      5-min Rain = 0
KSDS 162300Z 17007KT 34/04 A2994 RMK A01 T03380044  RH  016%=      5-min Rain = 0
KSDS 162305Z 16009G14KT 34/04 A2993 RMK A01 T03370044  RH  016%=      5-min Rain = 0
KSDS 162310Z 16008G19KT 34/05 A2993 RMK A01 T03380045  RH  016%=      5-min Rain = 0
KSDS 162315Z 15006G11KT 34/04 A2993 RMK A01 T03350044  RH  017%=      5-min Rain = 0
KSDS 162320Z 14005G10KT 33/04 A2993 RMK A01 T03310040  RH  016%=      5-min Rain = 0
KSDS 162325Z 14007KT 33/03 A2993 RMK A01 T03270034  RH  016%=      5-min Rain = 0
KSDS 162330Z 15005KT 33/04 A2993 RMK A01 T03260036  RH  016%=      5-min Rain = 0
KSDS 162335Z 21005KT 33/04 A2993 RMK A01 T03320037  RH  016%=      5-min Rain = 0
KSDS 162340Z 24005KT 33/03 A2993 RMK A01 T03310025  RH  015%=      5-min Rain = 0
KSDS 162345Z 24004G9KT 33/02 A2993 RMK A01 T03330024  RH  014%=      5-min Rain = 0
KSDS 162350Z 19002KT 34/02 A2993 RMK A01 T03360020  RH  014%=      5-min Rain = 0
KSDS 162355Z 11002KT 34/02 A2992 RMK A01 T03390019  RH  014%=      5-min Rain = 0
KSDS 170000Z 22004KT 34/02 A2992 RMK A01 T03390017  RH  013%=      5-min Rain = 0
KSDS 170005Z 26009KT 34/M00 A2992 RMK A01 T03381002  RH  012%=      5-min Rain = 0
KSDS 170010Z 26010KT 34/M01 A2992 RMK A01 T03371008  RH  011%=      5-min Rain = 0
KSDS 170015Z 26011KT 33/M01 A2992 RMK A01 T03341008  RH  011%=      5-min Rain = 0
KSDS 170020Z 26007KT 33/M00 A2992 RMK A01 T03331004  RH  012%=      5-min Rain = 0
KSDS 170025Z 26006KT 33/M00 A2992 RMK A01 T03321002  RH  012%=      5-min Rain = 0
KSDS 170030Z 29005KT 33/M00 A2992 RMK A01 T03331002  RH  012%=      5-min Rain = 0
KSDS 170035Z 28006KT 33/M00 A2992 RMK A01 T03321002  RH  012%=      5-min Rain = 0
KSDS 170040Z 29003KT 33/M00 A2992 RMK A01 T03311001  RH  012%=      5-min Rain = 0
KSDS 170045Z 24002KT 33/00 A2992 RMK A01 T03320000  RH  012%=      5-min Rain = 0
KSDS 170050Z 22002KT 33/00 A2992 RMK A01 T033100-0  RH  012%=      5-min Rain = 0
KSDS 170055Z 24002KT 33/M00 A2992 RMK A01 T03301002  RH  012%=      5-min Rain = 0
KSDS 170100Z 30002KT 33/M00 A2992 RMK A01 T03311002  RH  012%=      5-min Rain = 0
KSDS 170105Z 29003KT 33/M00 A2992 RMK A01 T03271001  RH  012%=      5-min Rain = 0
KSDS 170110Z 27002KT 33/M01 A2992 RMK A01 T03251006  RH  012%=      5-min Rain = 0
KSDS 170115Z 28002KT 32/M01 A2992 RMK A01 T03241005  RH  012%=      5-min Rain = 0
KSDS 170120Z 28003KT 32/M00 A2992 RMK A01 T03201003  RH  013%=      5-min Rain = 0
KSDS 170125Z 29003KT 31/00 A2992 RMK A01 T03140001  RH  014%=      5-min Rain = 0
KSDS 170130Z 30002KT 31/00 A2992 RMK A01 T03090002  RH  014%=      5-min Rain = 0
KSDS 170135Z 31002KT 31/00 A2992 RMK A01 T03060002  RH  014%=      5-min Rain = 0
KSDS 170140Z 31002KT 30/00 A2993 RMK A01 T03030003  RH  015%=      5-min Rain = 0
KSDS 170145Z 32001KT 30/00 A2993 RMK A01 T03000001  RH  015%=      5-min Rain = 0
KSDS 170150Z 32001KT 30/M00 A2993 RMK A01 T02991004  RH  014%=      5-min Rain = 0
KSDS 170155Z 07001KT 30/M00 A2993 RMK A01 T02951001  RH  015%=      5-min Rain = 0
KSDS 170200Z 10004KT 28/00 A2993 RMK A01 T02760004  RH  017%=      5-min Rain = 0
KSDS 170205Z 11004KT 27/00 A2993 RMK A01 T02730003  RH  017%=      5-min Rain = 0
KSDS 170210Z 10007G15KT 28/00 A2994 RMK A01 T02750003  RH  017%=      5-min Rain = 0
KSDS 170215Z 12012G18KT 27/07 A2994 RMK A01 T02730073  RH  029%=      5-min Rain = 0
KSDS 170220Z 11011KT 27/09 A2994 RMK A01 T02720088  RH  032%=      5-min Rain = 0
KSDS 170225Z 12013G19KT 27/10 A2995 RMK A01 T02730095  RH  034%=      5-min Rain = 0
KSDS 170230Z 12013G19KT 27/10 A2995 RMK A01 T02730097  RH  034%=      5-min Rain = 0
KSDS 170235Z 12013G18KT 27/10 A2995 RMK A01 T02720097  RH  035%=      5-min Rain = 0
KSDS 170240Z 12013G20KT 27/10 A2995 RMK A01 T02700098  RH  035%=      5-min Rain = 0
KSDS 170245Z 12013G18KT 27/10 A2995 RMK A01 T02700098  RH  035%=      5-min Rain = 0
KSDS 170250Z 13012KT 27/10 A2996 RMK A01 T02670098  RH  036%=      5-min Rain = 0
KSDS 170255Z 13012KT 26/10 A2996 RMK A01 T02630098  RH  037%=      5-min Rain = 0
KSDS 170300Z 13012KT 26/10 A2996 RMK A01 T02620099  RH  037%=      5-min Rain = 0
KSDS 170305Z 13012KT 26/10 A2996 RMK A01 T02600100  RH  038%=      5-min Rain = 0
KSDS 170310Z 13011KT 26/10 A2997 RMK A01 T02570101  RH  039%=      5-min Rain = 0
KSDS 170315Z 13014KT 26/10 A2997 RMK A01 T02570102  RH  039%=      5-min Rain = 0
KSDS 170320Z 13013G18KT 26/10 A2997 RMK A01 T02560103  RH  039%=      5-min Rain = 0
KSDS 170325Z 13013G18KT 26/10 A2997 RMK A01 T02550103  RH  040%=      5-min Rain = 0
KSDS 170330Z 13013G19KT 25/10 A2997 RMK A01 T02540103  RH  040%=      5-min Rain = 0
KSDS 170335Z 12012G17KT 25/10 A2997 RMK A01 T02520103  RH  040%=      5-min Rain = 0
KSDS 170340Z 12013KT 25/10 A2998 RMK A01 T02520103  RH  041%=      5-min Rain = 0
KSDS 170345Z 12013KT 25/10 A2998 RMK A01 T02510104  RH  041%=      5-min Rain = 0
KSDS 170350Z 12015G22KT 25/11 A2998 RMK A01 T02500106  RH  042%=      5-min Rain = 0
KSDS 170355Z 12015G21KT 25/11 A2998 RMK A01 T02480110  RH  043%=      5-min Rain = 0
KSDS 170400Z 12015G21KT 25/11 A2998 RMK A01 T02470113  RH  044%=      5-min Rain = 0
KSDS 170405Z 12014G20KT 25/11 A2998 RMK A01 T02450114  RH  045%=      5-min Rain = 0
KSDS 170410Z 12015G20KT 24/11 A2999 RMK A01 T02440114  RH  046%=      5-min Rain = 0
KSDS 170415Z 12015G23KT 24/12 A2999 RMK A01 T02440115  RH  046%=      5-min Rain = 0
KSDS 170420Z 12016G22KT 24/12 A2998 RMK A01 T02420115  RH  047%=      5-min Rain = 0
KSDS 170425Z 12015KT 24/12 A2999 RMK A01 T02410115  RH  047%=      5-min Rain = 0
KSDS 170430Z 12015G21KT 24/12 A2999 RMK A01 T02400115  RH  047%=      5-min Rain = 0
KSDS 170435Z 12013G19KT 24/12 A2999 RMK A01 T02390116  RH  047%=      5-min Rain = 0
KSDS 170440Z 12013G21KT 24/12 A2999 RMK A01 T02370115  RH  048%=      5-min Rain = 0
KSDS 170445Z 12014G22KT 24/12 A2999 RMK A01 T02370115  RH  048%=      5-min Rain = 0
KSDS 170450Z 13015G21KT 24/12 A2999 RMK A01 T02360116  RH  048%=      5-min Rain = 0
KSDS 170455Z 13015KT 24/12 A2999 RMK A01 T02360116  RH  049%=      5-min Rain = 0
KSDS 170500Z 13013G18KT 23/12 A30 RMK A01 T02340116  RH  049%=      5-min Rain = 0

Page generated in 0.1555 seconds.